Kampeska, South Dakota
Current Conditions -  °F | °C
As of 5:53 AM on Thursday 23 Oct 2014 (Local Time) from KATY Reporting Station
Haze Haze  
Wind Chill: 35°   Ceiling: 100
Heat Index: 39°   Visibility: 0.75mi
Dew Point: 39°   Wind: 6mph
Humidity: 100%   Direction: 160°SSE
Pressure: 29.97"   Gusts: NA
Location:  44.9156°N, 97.1699°W
Report Text: KATY 231053Z AUTO 16005KT 3/4SM BR VV001 04/04 A2997 RMK AO2 SLP158 T00390039
Loading
Personal Weather Stations






























Interactive Weather Map
Tropical Storm Tracking
New forecast layout! Learn more

10-Day Weather Forecast

Advertisements
Track Severe Weather on mobile